Time;durP1;ratioP1;P1;durP2;ratioP2;P2;SDS_P1;SDS_P2;PMS_P1;PMS_P2;Temp;Humidity;BMP_temperature;BMP_pressure;BME280_temperature;BME280_humidity;BME280_pressure;Samples;Min_cycle;Max_cycle;Signal;HPM_P1;HPM_P2
2022/10/11 00:00:53;;;;;;;6.90;3.47;;;7.10;99.90;;;;;;5036738;28;20191;-72
2022/10/11 00:03:20;;;;;;;8.53;3.87;;;7.10;99.90;;;;;;5035449;28;20180;-71
2022/10/11 00:05:46;;;;;;;7.33;3.33;;;6.70;99.90;;;;;;5036771;28;20202;-77
2022/10/11 00:08:12;;;;;;;6.20;3.67;;;6.50;99.90;;;;;;5036897;28;20216;-74
2022/10/11 00:10:39;;;;;;;13.73;3.47;;;6.20;99.90;;;;;;5030767;28;20255;-75
2022/10/11 00:13:06;;;;;;;9.43;4.27;;;7.60;99.90;;;;;;5032658;28;20533;-72
2022/10/11 00:15:31;;;;;;;5.70;3.50;;;7.60;99.90;;;;;;5025956;28;20207;-75
2022/10/11 00:17:57;;;;;;;4.20;2.83;;;7.60;99.90;;;;;;5032336;28;20477;-73
2022/10/11 00:20:23;;;;;;;7.83;3.07;;;7.60;99.90;;;;;;5026429;28;20580;-71
2022/10/11 00:22:49;;;;;;;4.87;3.00;;;7.50;99.90;;;;;;5035486;28;20266;-69
2022/10/11 00:25:15;;;;;;;6.90;3.57;;;7.50;99.90;;;;;;5031155;28;20657;-72
2022/10/11 00:27:41;;;;;;;17.00;3.20;;;7.50;99.90;;;;;;5029781;28;20273;-69
2022/10/11 00:30:09;;;;;;;10.53;3.23;;;7.50;99.90;;;;;;5034095;28;20280;-72
2022/10/11 00:32:37;;;;;;;26.17;4.07;;;7.50;99.90;;;;;;5031587;28;20231;-69
2022/10/11 00:35:05;;;;;;;7.27;3.20;;;7.40;99.90;;;;;;5026912;28;20170;-68
2022/10/11 00:37:33;;;;;;;7.90;3.23;;;7.40;99.90;;;;;;5036129;28;20181;-71
2022/10/11 00:39:59;;;;;;;5.13;3.30;;;7.40;99.90;;;;;;5036202;28;20235;-71
2022/10/11 00:42:25;;;;;;;10.70;4.00;;;7.40;99.90;;;;;;5031278;28;20180;-69
2022/10/11 00:44:51;;;;;;;9.87;4.27;;;7.40;99.90;;;;;;5030420;28;20630;-73
2022/10/11 00:47:21;;;;;;;7.90;3.13;;;7.40;99.90;;;;;;5018280;28;20185;-73
2022/10/11 00:49:58;;;;;;;8.57;2.87;;;7.30;99.90;;;;;;5030484;28;20201;-71
2022/10/11 00:52:38;;;;;;;6.30;2.73;;;7.30;99.90;;;;;;5030106;28;20191;-71
2022/10/11 00:55:17;;;;;;;10.90;4.00;;;7.30;99.90;;;;;;5036067;28;20213;-75
2022/10/11 00:57:47;;;;;;;6.73;3.17;;;7.30;99.90;;;;;;5033372;28;20167;-69
2022/10/11 01:00:14;;;;;;;8.47;3.17;;;7.20;99.90;;;;;;5034048;28;20188;-71
2022/10/11 01:02:41;;;;;;;11.73;3.60;;;7.00;99.90;;;;;;5017724;28;20299;-73
2022/10/11 01:05:09;;;;;;;7.20;3.23;;;6.90;99.90;;;;;;5026280;28;20189;-70
2022/10/11 01:07:36;;;;;;;7.33;3.67;;;6.90;99.90;;;;;;5035840;28;20177;-70
2022/10/11 01:10:03;;;;;;;11.90;3.30;;;6.90;99.90;;;;;;5035660;28;20290;-68
2022/10/11 01:12:30;;;;;;;6.40;2.57;;;6.90;99.90;;;;;;5030682;28;20192;-70
2022/10/11 01:15:22;;;;;;;8.47;3.00;;;6.80;99.90;;;;;;5024953;28;20666;-70
2022/10/11 01:18:03;;;;;;;5.90;3.20;;;6.80;99.90;;;;;;5041140;28;20181;-72
2022/10/11 01:20:37;;;;;;;14.30;4.60;;;6.70;99.90;;;;;;5025250;28;20184;-72
2022/10/11 01:23:14;;;;;;;6.47;3.57;;;6.40;99.90;;;;;;5017721;28;20648;-70
2022/10/11 01:25:51;;;;;;;6.03;2.63;;;6.20;99.90;;;;;;5033499;28;20172;-72
2022/10/11 01:28:34;;;;;;;6.47;3.07;;;5.10;99.90;;;;;;5028613;28;20239;-69
2022/10/11 01:31:20;;;;;;;10.13;3.30;;;7.20;99.90;;;;;;5028989;28;20215;-73
2022/10/11 01:33:56;;;;;;;7.47;3.17;;;7.10;99.90;;;;;;5031764;28;20184;-71
2022/10/11 01:36:33;;;;;;;10.63;3.17;;;7.10;99.90;;;;;;5026488;28;20238;-68
2022/10/11 01:39:05;;;;;;;6.67;2.83;;;7.10;99.90;;;;;;5031068;28;20600;-70
2022/10/11 01:41:53;;;;;;;8.90;3.53;;;7.10;99.90;;;;;;5030967;28;20255;-70
2022/10/11 01:44:19;;;;;;;7.73;2.80;;;7.10;99.90;;;;;;5029221;28;20631;-73
2022/10/11 01:46:45;;;;;;;6.63;3.03;;;7.00;99.90;;;;;;5034736;28;20185;-72
2022/10/11 01:49:11;;;;;;;11.73;4.13;;;7.00;99.90;;;;;;5034961;28;20268;-71
2022/10/11 01:51:40;;;;;;;3.70;2.60;;;7.00;99.90;;;;;;5032354;28;20192;-73
2022/10/11 01:54:27;;;;;;;6.87;2.67;;;7.00;99.90;;;;;;5035301;28;20175;-71
2022/10/11 01:57:05;;;;;;;6.37;3.43;;;7.00;99.90;;;;;;5031648;28;20184;-69
2022/10/11 02:00:00;;;;;;;4.83;2.60;;;7.00;99.90;;;;;;5030104;28;20603;-73
2022/10/11 02:02:35;;;;;;;10.43;3.80;;;6.90;99.90;;;;;;5028924;28;20268;-72
2022/10/11 02:05:39;;;;;;;11.43;2.70;;;6.80;99.90;;;;;;5020100;28;20188;-71
2022/10/11 02:08:14;;;;;;;6.77;3.30;;;6.90;99.90;;;;;;5025888;28;20212;-73
2022/10/11 02:11:11;;;;;;;6.23;3.00;;;6.80;99.90;;;;;;5029285;28;20180;-68
2022/10/11 02:14:05;;;;;;;5.60;2.60;;;6.80;99.90;;;;;;5021224;28;20182;-69
2022/10/11 02:16:40;;;;;;;8.37;3.10;;;6.80;99.90;;;;;;5027222;28;20480;-72
2022/10/11 02:19:08;;;;;;;7.50;3.57;;;6.80;99.90;;;;;;5034692;28;20181;-71
2022/10/11 02:21:38;;;;;;;6.10;2.67;;;6.80;99.90;;;;;;5034201;28;20188;-69
2022/10/11 02:24:16;;;;;;;7.63;2.97;;;6.80;99.90;;;;;;5028325;28;20181;-72
2022/10/11 02:26:46;;;;;;;7.03;3.10;;;6.80;99.90;;;;;;5027046;28;20185;-69
2022/10/11 02:29:15;;;;;;;9.53;3.03;;;6.80;99.90;;;;;;5038480;28;20212;-70
2022/10/11 02:31:42;;;;;;;6.73;3.23;;;6.80;99.90;;;;;;5020141;28;20494;-70
2022/10/11 02:34:19;;;;;;;12.27;4.33;;;6.80;99.90;;;;;;5037854;28;20188;-72
2022/10/11 02:36:54;;;;;;;5.60;2.33;;;6.80;99.90;;;;;;5021546;28;20184;-69
2022/10/11 02:39:36;;;;;;;6.10;3.03;;;6.80;99.90;;;;;;5033282;28;20212;-69
2022/10/11 02:42:08;;;;;;;7.90;2.93;;;6.70;99.90;;;;;;5032826;28;20453;-69
2022/10/11 02:44:42;;;;;;;6.23;3.23;;;6.60;99.90;;;;;;5038291;28;20787;-69
2022/10/11 02:47:08;;;;;;;6.20;2.90;;;6.70;99.90;;;;;;5038422;28;20191;-70
2022/10/11 02:49:35;;;;;;;7.27;3.20;;;6.70;99.90;;;;;;5034526;28;20499;-68
2022/10/11 02:52:03;;;;;;;13.13;2.83;;;6.70;99.90;;;;;;5034013;28;20607;-73
2022/10/11 02:54:29;;;;;;;14.13;2.93;;;6.70;99.90;;;;;;5027051;28;20582;-77
2022/10/11 02:56:55;;;;;;;4.97;2.67;;;6.70;99.90;;;;;;5053663;28;20427;-69
2022/10/11 02:59:21;;;;;;;5.73;2.37;;;6.60;99.90;;;;;;5038209;28;20188;-72
2022/10/11 03:01:47;;;;;;;3.47;2.37;;;6.70;99.90;;;;;;5032854;28;20370;-72
2022/10/11 03:04:12;;;;;;;7.10;2.80;;;6.70;99.90;;;;;;5028707;28;20192;-70
2022/10/11 03:06:38;;;;;;;6.10;3.20;;;6.70;99.90;;;;;;5035113;28;20200;-74
2022/10/11 03:09:04;;;;;;;10.63;2.73;;;6.60;99.90;;;;;;5025117;28;20216;-74
2022/10/11 03:11:30;;;;;;;4.37;2.37;;;6.70;99.90;;;;;;5036972;28;20477;-71
2022/10/11 03:13:55;;;;;;;5.40;2.93;;;6.60;99.90;;;;;;5034404;28;20192;-69
2022/10/11 03:16:21;;;;;;;5.47;3.20;;;6.60;99.90;;;;;;5032368;28;20506;-69
2022/10/11 03:18:47;;;;;;;13.07;3.77;;;6.60;99.90;;;;;;5037316;28;20185;-69
2022/10/11 03:21:13;;;;;;;3.73;2.80;;;6.60;99.90;;;;;;5030866;28;20196;-70
2022/10/11 03:23:38;;;;;;;3.67;2.20;;;6.60;99.90;;;;;;5032139;28;20263;-77
2022/10/11 03:26:05;;;;;;;5.53;2.87;;;6.60;99.90;;;;;;5034142;28;20183;-69
2022/10/11 03:28:30;;;;;;;7.60;2.77;;;6.50;99.90;;;;;;5032918;28;20201;-69
2022/10/11 03:30:56;;;;;;;7.83;2.90;;;6.50;99.90;;;;;;5032847;28;20183;-69
2022/10/11 03:33:22;;;;;;;5.33;2.73;;;6.50;99.90;;;;;;5034323;28;20188;-69
2022/10/11 03:35:49;;;;;;;6.80;2.67;;;6.50;99.90;;;;;;5037432;28;20433;-69
2022/10/11 03:38:18;;;;;;;7.17;2.30;;;6.40;99.90;;;;;;5037468;28;20259;-69
2022/10/11 03:40:44;;;;;;;7.53;2.67;;;6.40;99.90;;;;;;5037018;28;20191;-76
2022/10/11 03:43:10;;;;;;;6.17;3.10;;;6.40;99.90;;;;;;5036337;28;20519;-69
2022/10/11 03:45:36;;;;;;;9.60;2.70;;;6.40;99.90;;;;;;5052804;28;20180;-71
2022/10/11 03:48:03;;;;;;;5.97;2.63;;;6.30;99.90;;;;;;5033141;28;20488;-73
2022/10/11 03:50:30;;;;;;;8.53;2.67;;;6.40;99.90;;;;;;5024439;28;20223;-73
2022/10/11 03:52:55;;;;;;;4.83;3.30;;;6.40;99.90;;;;;;5027330;28;20850;-71
2022/10/11 03:55:21;;;;;;;9.47;3.03;;;6.40;99.90;;;;;;5031447;28;20175;-70
2022/10/11 03:57:47;;;;;;;15.00;3.37;;;6.30;99.90;;;;;;5026465;28;20180;-68
2022/10/11 04:00:13;;;;;;;3.90;2.03;;;6.30;99.90;;;;;;5052356;28;20188;-70
2022/10/11 04:02:38;;;;;;;5.43;2.73;;;6.20;99.90;;;;;;5035911;28;20199;-71
2022/10/11 04:05:05;;;;;;;4.60;2.63;;;6.20;99.90;;;;;;5026800;28;20177;-68
2022/10/11 04:07:31;;;;;;;8.73;2.70;;;6.30;99.90;;;;;;5028825;28;20267;-70
2022/10/11 04:09:57;;;;;;;15.00;2.77;;;6.20;99.90;;;;;;5045363;28;20201;-71
2022/10/11 04:12:24;;;;;;;6.07;2.70;;;6.30;99.90;;;;;;5029841;28;20520;-69
2022/10/11 04:14:49;;;;;;;6.83;2.70;;;6.20;99.90;;;;;;5031093;28;20188;-69
2022/10/11 04:17:15;;;;;;;16.60;3.43;;;6.20;99.90;;;;;;5036488;28;20849;-70
2022/10/11 04:19:41;;;;;;;4.30;2.13;;;6.20;99.90;;;;;;5032714;28;20184;-71
2022/10/11 04:22:07;;;;;;;6.30;2.73;;;6.20;99.90;;;;;;5032539;28;20605;-71
2022/10/11 04:24:33;;;;;;;13.33;3.30;;;6.20;99.90;;;;;;5019746;28;20218;-75
2022/10/11 04:26:58;;;;;;;2.77;2.20;;;6.10;99.90;;;;;;5029100;28;20185;-70
2022/10/11 04:29:24;;;;;;;4.93;2.83;;;6.10;99.90;;;;;;5032801;28;20204;-69
2022/10/11 04:31:50;;;;;;;12.03;2.90;;;6.00;99.90;;;;;;5035162;28;20176;-74
2022/10/11 04:34:16;;;;;;;4.93;2.30;;;5.90;99.90;;;;;;5030444;28;20223;-68
2022/10/11 04:36:42;;;;;;;6.47;2.93;;;5.70;99.90;;;;;;5035183;28;20177;-74
2022/10/11 04:39:09;;;;;;;4.33;2.67;;;5.40;99.90;;;;;;5021976;28;20464;-68
2022/10/11 04:41:35;;;;;;;7.10;2.23;;;4.60;99.90;;;;;;5029811;28;20321;-73
2022/10/11 04:44:01;;;;;;;8.70;2.80;;;4.00;99.90;;;;;;5018826;28;20422;-70
2022/10/11 04:46:27;;;;;;;16.83;2.43;;;0.50;99.90;;;;;;5019907;28;20433;-70
2022/10/11 04:48:54;;;;;;;8.07;3.10;;;6.00;99.90;;;;;;5030061;28;20246;-69
2022/10/11 04:51:20;;;;;;;6.93;2.97;;;6.00;99.90;;;;;;5031592;28;20192;-69
2022/10/11 04:53:47;;;;;;;2.97;2.40;;;6.00;99.90;;;;;;5027640;28;20684;-71
2022/10/11 04:56:14;;;;;;;5.03;2.27;;;6.00;99.90;;;;;;5024794;28;20878;-71
2022/10/11 04:58:40;;;;;;;4.93;2.43;;;6.00;99.90;;;;;;5023326;28;20430;-69
2022/10/11 05:01:07;;;;;;;3.43;2.30;;;6.00;99.90;;;;;;5029887;28;20231;-72
2022/10/11 05:03:33;;;;;;;7.63;3.80;;;6.00;99.90;;;;;;5031867;28;20729;-69
2022/10/11 05:05:59;;;;;;;5.80;2.53;;;6.00;99.90;;;;;;5018367;28;20487;-71
2022/10/11 05:08:25;;;;;;;12.23;2.90;;;6.00;99.90;;;;;;5026173;28;20254;-70
2022/10/11 05:10:59;;;;;;;8.63;3.20;;;5.90;99.90;;;;;;5031838;28;20419;-69
2022/10/11 05:13:26;;;;;;;6.03;2.57;;;5.90;99.90;;;;;;5034178;28;20173;-69
2022/10/11 05:15:52;;;;;;;2.57;1.77;;;6.00;99.90;;;;;;5028874;28;20449;-70
2022/10/11 05:18:18;;;;;;;4.27;2.60;;;5.90;99.90;;;;;;5034211;28;20430;-69
2022/10/11 05:20:44;;;;;;;4.80;3.20;;;6.00;99.90;;;;;;5029212;28;20231;-69
2022/10/11 05:23:10;;;;;;;11.00;3.63;;;6.00;99.90;;;;;;5034823;28;20195;-71
2022/10/11 05:25:36;;;;;;;5.97;2.83;;;6.00;99.90;;;;;;5035612;28;20184;-72
2022/10/11 05:28:03;;;;;;;7.13;3.00;;;6.00;99.90;;;;;;5050910;28;20190;-69
2022/10/11 05:30:28;;;;;;;3.33;2.17;;;6.00;99.90;;;;;;5035114;28;20623;-69
2022/10/11 05:32:54;;;;;;;4.87;2.57;;;6.00;99.90;;;;;;5035732;28;20432;-67
2022/10/11 05:35:20;;;;;;;2.97;2.07;;;5.90;99.90;;;;;;5034283;28;20329;-69
2022/10/11 05:37:45;;;;;;;10.83;3.17;;;5.80;99.90;;;;;;5024872;28;20181;-70
2022/10/11 05:40:11;;;;;;;4.90;2.70;;;5.80;99.90;;;;;;5028193;28;20766;-70
2022/10/11 05:42:37;;;;;;;11.43;3.00;;;5.70;99.90;;;;;;5031426;28;20191;-70
2022/10/11 05:45:05;;;;;;;5.27;2.23;;;5.70;99.90;;;;;;5034197;28;20867;-70
2022/10/11 05:47:32;;;;;;;7.43;2.47;;;5.70;99.90;;;;;;5030595;28;20194;-75
2022/10/11 05:49:58;;;;;;;14.27;2.90;;;5.80;99.90;;;;;;5039092;28;20204;-67
2022/10/11 05:52:23;;;;;;;8.83;2.10;;;5.80;99.90;;;;;;5030748;28;20441;-69
2022/10/11 05:54:49;;;;;;;7.60;2.37;;;5.80;99.90;;;;;;5033279;28;20615;-72
2022/10/11 05:57:15;;;;;;;6.83;2.80;;;5.70;99.90;;;;;;5032461;28;20596;-70
2022/10/11 05:59:41;;;;;;;5.90;2.67;;;5.70;99.90;;;;;;5030889;28;20194;-72
2022/10/11 06:02:11;;;;;;;8.90;2.70;;;5.80;99.90;;;;;;5033584;28;20515;-71
2022/10/11 06:04:37;;;;;;;10.67;2.47;;;5.70;99.90;;;;;;5039318;28;20538;-70
2022/10/11 06:07:04;;;;;;;8.57;2.80;;;5.70;99.90;;;;;;5049767;28;20438;-69
2022/10/11 06:09:30;;;;;;;7.10;2.20;;;5.70;99.90;;;;;;5037348;28;20497;-69
2022/10/11 06:11:56;;;;;;;4.77;3.43;;;5.70;99.90;;;;;;5030741;28;20438;-69
2022/10/11 06:14:22;;;;;;;7.77;3.77;;;5.70;99.90;;;;;;5021607;28;20426;-77
2022/10/11 06:16:48;;;;;;;6.60;2.87;;;5.70;99.90;;;;;;5035701;28;20437;-73
2022/10/11 06:19:14;;;;;;;12.80;3.30;;;5.70;99.90;;;;;;5038579;28;20519;-69
2022/10/11 06:21:39;;;;;;;10.27;4.07;;;5.70;99.90;;;;;;5038979;28;20196;-70
2022/10/11 06:24:05;;;;;;;8.43;3.47;;;5.70;99.90;;;;;;5034078;28;20184;-73
2022/10/11 06:26:31;;;;;;;7.53;3.47;;;5.70;99.90;;;;;;5038437;28;20211;-72
2022/10/11 06:28:57;;;;;;;10.13;3.37;;;5.70;99.90;;;;;;5030795;28;20476;-73
2022/10/11 06:31:24;;;;;;;8.40;4.37;;;5.70;99.90;;;;;;5032010;28;20179;-74
2022/10/11 06:33:49;;;;;;;17.03;4.50;;;5.70;99.90;;;;;;5038317;28;20235;-73
2022/10/11 06:36:15;;;;;;;7.63;4.87;;;5.70;99.90;;;;;;5038518;28;20439;-74
2022/10/11 06:38:42;;;;;;;9.23;5.27;;;5.70;99.90;;;;;;5033750;28;20221;-75
2022/10/11 06:41:28;;;;;;;6.97;3.60;;;5.80;99.90;;;;;;5029236;28;20933;-76
2022/10/11 06:43:54;;;;;;;12.13;5.47;;;5.80;99.90;;;;;;5030734;28;20422;-71
2022/10/11 06:46:23;;;;;;;8.63;4.30;;;5.80;99.90;;;;;;5041936;28;20520;-69
2022/10/11 06:48:49;;;;;;;9.47;4.27;;;5.90;99.90;;;;;;5025660;28;20458;-69
2022/10/11 06:51:17;;;;;;;11.73;4.50;;;6.00;99.90;;;;;;5036477;28;20433;-71
2022/10/11 06:53:50;;;;;;;8.57;3.73;;;6.10;99.90;;;;;;5047207;28;20422;-69
2022/10/11 06:56:16;;;;;;;13.00;5.03;;;6.10;99.90;;;;;;5031134;28;20508;-69
2022/10/11 06:58:41;;;;;;;13.50;4.40;;;6.20;99.90;;;;;;5033473;28;20275;-69
2022/10/11 07:01:15;;;;;;;21.70;5.00;;;6.20;99.90;;;;;;5038064;28;20238;-73
2022/10/11 07:03:41;;;;;;;7.07;3.67;;;6.20;99.90;;;;;;5034077;28;20234;-70
2022/10/11 07:06:09;;;;;;;10.73;3.47;;;6.30;99.90;;;;;;5033547;28;20326;-73
2022/10/11 07:08:35;;;;;;;11.93;4.67;;;6.30;99.90;;;;;;5032899;28;20333;-71
2022/10/11 07:11:10;;;;;;;13.93;4.07;;;6.40;99.90;;;;;;5034343;28;20185;-71
2022/10/11 07:13:37;;;;;;;9.97;4.67;;;6.50;99.90;;;;;;5037535;28;20180;-70
2022/10/11 07:16:05;;;;;;;9.07;4.30;;;6.50;99.90;;;;;;5037482;28;20449;-74
2022/10/11 07:18:31;;;;;;;11.07;4.93;;;6.50;99.90;;;;;;5037591;28;20212;-70
2022/10/11 07:20:57;;;;;;;7.57;4.00;;;6.60;99.90;;;;;;5037670;28;20583;-70
2022/10/11 07:23:24;;;;;;;9.97;4.07;;;6.60;99.90;;;;;;5037632;28;20197;-69
2022/10/11 07:25:53;;;;;;;10.13;4.00;;;6.70;99.90;;;;;;5037477;28;20211;-69
2022/10/11 07:28:20;;;;;;;17.37;5.00;;;6.70;99.90;;;;;;5025322;28;20300;-71
2022/10/11 07:30:45;;;;;;;10.87;4.60;;;6.80;99.90;;;;;;5036261;28;20188;-70
2022/10/11 07:33:11;;;;;;;12.37;4.10;;;6.80;99.90;;;;;;5029350;28;20180;-70
2022/10/11 07:35:37;;;;;;;12.37;4.87;;;6.90;99.90;;;;;;5030941;28;20460;-71
2022/10/11 07:38:04;;;;;;;8.10;4.07;;;6.90;99.90;;;;;;5030724;28;20596;-70
2022/10/11 07:40:30;;;;;;;6.83;3.90;;;7.00;99.90;;;;;;5037344;28;20208;-69
2022/10/11 07:42:56;;;;;;;11.50;4.53;;;7.10;99.90;;;;;;5028271;28;20566;-70
2022/10/11 07:45:24;;;;;;;18.07;3.93;;;7.10;99.90;;;;;;5031842;28;20190;-70
2022/10/11 07:47:50;;;;;;;13.27;6.20;;;7.20;99.90;;;;;;5036016;28;20188;-70
2022/10/11 07:50:16;;;;;;;13.63;4.17;;;7.20;99.90;;;;;;5042252;28;20206;-68
2022/10/11 07:52:41;;;;;;;11.47;5.37;;;7.30;99.90;;;;;;5030512;28;20271;-68
2022/10/11 07:55:08;;;;;;;15.97;4.13;;;7.30;99.90;;;;;;5037391;28;20188;-69
2022/10/11 07:57:33;;;;;;;10.20;4.20;;;7.40;99.90;;;;;;5030570;28;20529;-69
2022/10/11 07:59:59;;;;;;;17.87;5.90;;;7.40;99.90;;;;;;5036642;28;20219;-68
2022/10/11 08:02:25;;;;;;;21.10;5.80;;;7.40;99.90;;;;;;5019582;28;20208;-69
2022/10/11 08:04:50;;;;;;;12.07;4.50;;;7.50;99.90;;;;;;5030932;28;20184;-69
2022/10/11 08:07:16;;;;;;;13.30;5.43;;;7.60;99.90;;;;;;5032902;28;20187;-69
2022/10/11 08:09:42;;;;;;;23.33;8.00;;;7.60;99.90;;;;;;5036736;28;20212;-69
2022/10/11 08:12:08;;;;;;;19.93;6.63;;;7.60;99.90;;;;;;5036329;28;20203;-69
2022/10/11 08:14:34;;;;;;;17.93;6.47;;;7.70;99.90;;;;;;5035950;28;20179;-69
2022/10/11 08:17:01;;;;;;;20.77;7.00;;;7.70;99.90;;;;;;5036349;28;20336;-70
2022/10/11 08:19:27;;;;;;;21.17;6.83;;;7.70;99.90;;;;;;5031086;28;20641;-69
2022/10/11 08:21:52;;;;;;;14.63;7.20;;;7.60;99.90;;;;;;5032886;28;20222;-69
2022/10/11 08:24:19;;;;;;;16.87;5.73;;;7.40;99.90;;;;;;5036629;28;20184;-75
2022/10/11 08:26:46;;;;;;;15.10;7.73;;;6.50;99.90;;;;;;5025200;28;20187;-70
2022/10/11 08:29:13;;;;;;;19.13;8.07;;;8.80;99.90;;;;;;5031934;28;20235;-72
2022/10/11 08:31:39;;;;;;;22.93;6.60;;;8.90;99.90;;;;;;5028400;28;20199;-73
2022/10/11 08:34:04;;;;;;;17.20;6.83;;;9.00;99.90;;;;;;5030042;28;20197;-74
2022/10/11 08:36:30;;;;;;;29.17;8.77;;;9.10;99.90;;;;;;5025546;28;20596;-73
2022/10/11 08:38:57;;;;;;;19.63;8.07;;;9.20;99.90;;;;;;5021964;28;20497;-67
2022/10/11 08:41:42;;;;;;;16.43;7.20;;;9.30;99.90;;;;;;5032928;28;20200;-72
2022/10/11 08:44:34;;;;;;;17.83;8.13;;;9.30;99.90;;;;;;5035995;28;20240;-75
2022/10/11 08:47:26;;;;;;;15.93;8.43;;;9.30;99.90;;;;;;5032601;28;20616;-72
2022/10/11 08:49:53;;;;;;;23.20;8.33;;;9.00;99.90;;;;;;5030478;28;20215;-72
2022/10/11 08:52:41;;;;;;;18.83;7.40;;;9.70;99.90;;;;;;5030344;28;20271;-74
2022/10/11 08:55:16;;;;;;;19.13;8.00;;;9.70;99.90;;;;;;5033016;28;20783;-74
2022/10/11 08:57:49;;;;;;;21.23;7.53;;;9.70;99.90;;;;;;5028358;28;20649;-72
2022/10/11 09:00:17;;;;;;;14.90;8.57;;;9.20;99.90;;;;;;5030404;28;20195;-72
2022/10/11 09:02:49;;;;;;;19.87;7.40;;;-20.90;99.90;;;;;;5035866;28;20210;-76
2022/10/11 09:05:17;;;;;;;25.70;7.27;;;10.30;99.90;;;;;;5051744;28;20189;-72
2022/10/11 09:08:09;;;;;;;21.83;7.00;;;10.20;99.90;;;;;;5035736;28;20603;-76
2022/10/11 09:11:04;;;;;;;20.83;7.00;;;10.10;99.90;;;;;;5035716;28;20264;-70
2022/10/11 09:13:51;;;;;;;17.37;6.83;;;10.00;99.90;;;;;;5033155;28;20176;-72
2022/10/11 09:16:38;;;;;;;13.67;5.83;;;9.90;99.90;;;;;;5025656;28;20561;-77
2022/10/11 09:19:37;;;;;;;17.77;7.33;;;-20.80;99.90;;;;;;5024378;28;20180;-72
2022/10/11 09:22:33;;;;;;;10.37;5.63;;;-18.30;99.90;;;;;;5027348;28;20195;-77
2022/10/11 09:25:17;;;;;;;12.67;5.07;;;-25.30;99.90;;;;;;5040251;28;20180;-74
2022/10/11 09:28:12;;;;;;;15.50;5.73;;;-16.90;99.90;;;;;;5035206;28;20185;-74
2022/10/11 09:30:45;;;;;;;26.07;4.90;;;-17.50;99.90;;;;;;5021498;28;20193;-74
2022/10/11 09:33:19;;;;;;;20.17;4.93;;;-19.50;99.90;;;;;;5024877;28;20240;-72
2022/10/11 09:35:48;;;;;;;10.10;2.90;;;-15.90;99.90;;;;;;5031551;28;20219;-77
2022/10/11 09:38:38;;;;;;;15.37;4.70;;;-26.80;99.90;;;;;;5026198;28;20189;-78
2022/10/11 09:41:15;;;;;;;15.73;2.93;;;-19.60;99.90;;;;;;5035488;28;20596;-73
2022/10/11 09:43:48;;;;;;;15.77;3.20;;;-18.20;99.90;;;;;;5035377;28;20184;-72
2022/10/11 09:46:21;;;;;;;15.70;3.20;;;-20.40;99.90;;;;;;5029441;28;20282;-78
2022/10/11 09:48:49;;;;;;;13.33;3.03;;;-20.40;99.90;;;;;;5033941;28;20605;-76
2022/10/11 09:51:20;;;;;;;9.83;3.20;;;-17.20;99.90;;;;;;5017637;28;20224;-77
2022/10/11 09:54:00;;;;;;;11.87;3.63;;;-17.90;99.90;;;;;;5028345;28;20176;-73
2022/10/11 09:56:29;;;;;;;7.33;3.43;;;-22.60;99.90;;;;;;5031810;28;20183;-73
2022/10/11 09:59:07;;;;;;;10.87;2.43;;;-19.90;99.90;;;;;;5035308;28;20183;-73
2022/10/11 10:01:33;;;;;;;8.40;2.67;;;-23.10;99.90;;;;;;5035106;28;20500;-72
2022/10/11 10:04:10;;;;;;;11.50;3.90;;;-23.40;99.90;;;;;;5045307;28;20209;-71
2022/10/11 10:06:36;;;;;;;9.83;2.97;;;-24.00;99.90;;;;;;5034750;28;20180;-70
2022/10/11 10:09:24;;;;;;;25.93;6.77;;;-22.70;99.90;;;;;;5022178;28;20201;-70
2022/10/11 10:11:51;;;;;;;10.47;3.90;;;-20.80;99.90;;;;;;5034897;28;20179;-74
2022/10/11 10:14:24;;;;;;;9.63;2.97;;;-19.00;99.90;;;;;;5034994;28;20494;-72
2022/10/11 10:16:59;;;;;;;8.63;3.00;;;-25.20;99.90;;;;;;5030278;28;20258;-71
2022/10/11 10:19:25;;;;;;;10.30;2.47;;;-24.20;99.90;;;;;;5024906;28;20189;-71
2022/10/11 10:21:53;;;;;;;9.07;2.63;;;-29.50;99.90;;;;;;5035139;28;20177;-74
2022/10/11 10:24:37;;;;;;;8.47;2.13;;;-24.10;99.90;;;;;;5023141;28;20230;-71
2022/10/11 10:27:22;;;;;;;8.53;2.47;;;-30.70;99.90;;;;;;5024800;28;20188;-70
2022/10/11 10:30:08;;;;;;;9.60;3.37;;;-25.80;99.90;;;;;;5025100;28;20216;-73
2022/10/11 10:32:44;;;;;;;9.53;2.67;;;-24.90;99.90;;;;;;5029622;28;20185;-72
2022/10/11 10:35:23;;;;;;;9.90;2.20;;;-24.90;99.90;;;;;;5054360;28;20184;-71
2022/10/11 10:38:15;;;;;;;13.40;2.77;;;-29.90;99.90;;;;;;5035743;28;20183;-70
2022/10/11 10:41:17;;;;;;;9.60;2.53;;;-26.00;99.90;;;;;;5032600;28;20177;-68
2022/10/11 10:43:54;;;;;;;8.77;2.77;;;-32.10;99.90;;;;;;5016159;28;20185;-71
2022/10/11 10:46:32;;;;;;;7.97;2.10;;;-30.90;99.90;;;;;;5027500;28;20600;-70
2022/10/11 10:49:21;;;;;;;11.10;2.40;;;-27.80;99.90;;;;;;5033850;28;20196;-69
2022/10/11 10:52:07;;;;;;;7.67;2.20;;;-32.80;99.90;;;;;;5035499;28;20210;-70
2022/10/11 10:54:58;;;;;;;6.97;2.03;;;-26.90;99.90;;;;;;5048573;28;20184;-70
2022/10/11 10:57:27;;;;;;;16.20;3.07;;;-31.70;99.90;;;;;;5036013;28;20652;-70
2022/10/11 11:00:24;;;;;;;10.03;3.77;;;-26.10;99.90;;;;;;5038164;28;20534;-69
2022/10/11 11:02:56;;;;;;;5.27;2.00;;;-36.20;99.90;;;;;;5023304;28;20202;-68
2022/10/11 11:05:43;;;;;;;8.17;2.27;;;-31.00;99.90;;;;;;5021482;28;20286;-68
2022/10/11 11:08:21;;;;;;;8.23;3.03;;;-30.70;99.90;;;;;;5044697;28;20177;-69
2022/10/11 11:11:38;;;;;;;5.00;1.83;;;-36.70;98.50;;;;;;5023608;28;20212;-78
2022/10/11 11:14:12;;;;;;;8.50;2.73;;;-39.00;98.70;;;;;;4984106;28;20182;-69
2022/10/11 11:16:54;;;;;;;6.63;2.30;;;-36.00;95.00;;;;;;5022970;28;20200;-69
2022/10/11 11:19:42;;;;;;;7.40;2.70;;;-33.60;95.70;;;;;;5019962;28;20224;-70
2022/10/11 11:22:39;;;;;;;11.77;2.93;;;-40.00;94.20;;;;;;5036122;28;20185;-68
2022/10/11 11:25:23;;;;;;;5.33;2.03;;;-40.00;94.50;;;;;;5029097;28;20245;-71
2022/10/11 11:28:01;;;;;;;6.10;2.27;;;-40.00;91.30;;;;;;5032804;28;20177;-70
2022/10/11 11:30:53;;;;;;;4.83;1.90;;;-40.00;88.80;;;;;;5028181;28;20209;-70
2022/10/11 11:33:37;;;;;;;12.97;2.83;;;-40.00;87.30;;;;;;5020125;28;20185;-71
2022/10/11 11:36:14;;;;;;;7.07;2.57;;;-40.00;76.90;;;;;;5049251;28;20238;-72
2022/10/11 11:38:43;;;;;;;7.33;2.03;;;-40.00;71.80;;;;;;5030282;28;20181;-70
2022/10/11 11:41:25;;;;;;;4.93;1.90;;;-40.00;73.20;;;;;;5034222;28;20227;-70
2022/10/11 11:44:01;;;;;;;4.83;2.10;;;-40.00;67.50;;;;;;5020522;28;20189;-71
2022/10/11 11:46:33;;;;;;;6.03;1.80;;;-40.00;71.00;;;;;;5032172;28;20191;-71
2022/10/11 11:49:06;;;;;;;5.27;1.70;;;-40.00;67.20;;;;;;5030625;28;20197;-71
2022/10/11 11:51:41;;;;;;;12.83;2.43;;;-40.00;65.30;;;;;;5031647;28;20179;-71
2022/10/11 11:54:36;;;;;;;7.00;2.50;;;-40.00;63.20;;;;;;5027490;28;20188;-70
2022/10/11 11:57:32;;;;;;;13.53;3.13;;;-40.00;64.50;;;;;;5033913;28;20608;-71
2022/10/11 12:00:04;;;;;;;5.03;1.70;;;-40.00;62.30;;;;;;5025796;28;20209;-70
2022/10/11 12:02:51;;;;;;;17.70;2.70;;;-40.00;61.90;;;;;;5033990;28;20457;-72
2022/10/11 12:05:20;;;;;;;12.63;5.00;;;-40.00;62.40;;;;;;5031975;28;20188;-72
2022/10/11 12:08:07;;;;;;;3.70;1.97;;;-40.00;62.40;;;;;;5035114;28;20180;-70
2022/10/11 12:10:48;;;;;;;5.97;2.20;;;-40.00;60.80;;;;;;5023935;28;20270;-71
2022/10/11 12:13:25;;;;;;;11.07;2.13;;;-40.00;63.80;;;;;;5027480;28;20212;-72
2022/10/11 12:15:59;;;;;;;10.03;2.07;;;-40.00;62.90;;;;;;5031001;28;20205;-74
2022/10/11 12:18:25;;;;;;;10.30;2.37;;;-40.00;66.30;;;;;;5018837;28;20189;-71
2022/10/11 12:21:20;;;;;;;8.10;2.73;;;-40.00;64.20;;;;;;5018197;28;20181;-70
2022/10/11 12:23:57;;;;;;;6.97;2.10;;;-40.00;59.60;;;;;;5030275;28;20256;-69
2022/10/11 12:26:38;;;;;;;5.37;2.70;;;-40.00;58.40;;;;;;5036238;28;20184;-69
2022/10/11 12:29:17;;;;;;;12.63;3.33;;;-40.00;56.50;;;;;;5030296;28;20263;-70
2022/10/11 12:31:47;;;;;;;4.77;2.87;;;-40.00;54.70;;;;;;5031531;28;20215;-71
2022/10/11 12:34:28;;;;;;;6.00;2.60;;;-40.00;54.30;;;;;;5030832;28;20223;-71
2022/10/11 12:36:54;;;;;;;8.90;3.87;;;-40.00;53.20;;;;;;5026471;28;20270;-70
2022/10/11 12:39:19;;;;;;;6.27;2.47;;;-40.00;51.50;;;;;;5032366;28;20220;-71
2022/10/11 12:41:50;;;;;;;4.97;2.13;;;-40.00;53.70;;;;;;5036143;28;20584;-70
2022/10/11 12:44:27;;;;;;;9.40;2.70;;;-40.00;52.30;;;;;;5036279;28;20184;-70
2022/10/11 12:46:53;;;;;;;7.63;2.77;;;-40.00;52.30;;;;;;5035083;28;20188;-69
2022/10/11 12:49:54;;;;;;;3.90;1.33;;;-40.00;50.30;;;;;;5036130;28;20511;-70
2022/10/11 12:52:28;;;;;;;8.57;2.67;;;-40.00;50.00;;;;;;5035147;28;20491;-71
2022/10/11 12:55:12;;;;;;;2.93;2.70;;;-40.00;48.60;;;;;;5030284;28;20191;-69
2022/10/11 12:57:57;;;;;;;8.20;2.07;;;-40.00;48.50;;;;;;5025087;28;20212;-70
2022/10/11 13:00:30;;;;;;;2.77;1.50;;;-40.00;47.20;;;;;;5020184;28;20600;-70
2022/10/11 13:02:59;;;;;;;12.57;3.20;;;-40.00;49.20;;;;;;5026651;28;20185;-71
2022/10/11 13:05:44;;;;;;;3.93;1.30;;;-40.00;47.90;;;;;;5031117;28;20212;-70
2022/10/11 13:08:17;;;;;;;5.57;2.23;;;-40.00;46.10;;;;;;5032026;28;20192;-71
2022/10/11 13:10:44;;;;;;;6.13;2.03;;;-40.00;47.80;;;;;;5035840;28;21926;-71
2022/10/11 13:13:44;;;;;;;6.80;2.10;;;-40.00;46.90;;;;;;5028019;28;20185;-71